createdAt,value
2022-10-03T00:00:27.259Z,3.67
2022-10-03T00:03:13.656Z,3.77
2022-10-03T00:05:51.971Z,3.30
2022-10-03T00:08:27.604Z,7.67
2022-10-03T00:11:02.950Z,4.20
2022-10-03T00:13:36.455Z,3.30
2022-10-03T00:16:08.958Z,3.77
2022-10-03T00:18:42.302Z,3.93
2022-10-03T00:21:24.647Z,3.47
2022-10-03T00:23:58.717Z,3.60
2022-10-03T00:26:31.633Z,3.77
2022-10-03T00:29:04.506Z,2.80
2022-10-03T00:31:39.885Z,3.30
2022-10-03T00:34:14.889Z,3.53
2022-10-03T00:36:49.850Z,2.97
2022-10-03T00:39:38.145Z,3.40
2022-10-03T00:42:25.213Z,3.20
2022-10-03T00:45:22.882Z,4.20
2022-10-03T00:48:09.075Z,3.37
2022-10-03T00:50:48.391Z,3.20
2022-10-03T00:53:38.030Z,3.23
2022-10-03T00:56:17.546Z,3.67
2022-10-03T00:59:01.992Z,3.63
2022-10-03T01:01:34.241Z,4.03
2022-10-03T01:04:10.997Z,3.03
2022-10-03T01:06:45.322Z,3.33
2022-10-03T01:09:17.401Z,3.30
2022-10-03T01:11:54.017Z,3.10
2022-10-03T01:14:42.163Z,3.63
2022-10-03T01:17:16.739Z,3.57
2022-10-03T01:20:01.769Z,3.63
2022-10-03T01:22:50.648Z,3.10
2022-10-03T01:25:20.833Z,3.10
2022-10-03T01:28:16.087Z,3.20
2022-10-03T01:30:49.473Z,3.70
2022-10-03T01:33:22.460Z,3.53
2022-10-03T01:35:55.556Z,3.57
2022-10-03T01:38:26.978Z,3.23
2022-10-03T01:41:03.222Z,3.90
2022-10-03T01:43:36.392Z,3.67
2022-10-03T01:46:14.517Z,3.40
2022-10-03T01:48:46.871Z,3.20
2022-10-03T01:51:17.212Z,3.73
2022-10-03T01:54:00.511Z,3.53
2022-10-03T01:56:31.121Z,3.40
2022-10-03T01:59:01.905Z,3.10
2022-10-03T02:01:36.687Z,2.93
2022-10-03T02:04:08.692Z,3.30
2022-10-03T02:06:42.983Z,3.47
2022-10-03T02:09:17.775Z,3.17
2022-10-03T02:11:56.381Z,3.47
2022-10-03T02:14:29.819Z,3.53
2022-10-03T02:17:03.581Z,3.53
2022-10-03T02:19:32.009Z,3.33
2022-10-03T02:22:03.053Z,3.17
2022-10-03T02:24:40.748Z,3.17
2022-10-03T02:27:28.180Z,3.50
2022-10-03T02:30:14.713Z,2.93
2022-10-03T02:33:06.557Z,3.13
2022-10-03T02:35:58.565Z,3.23
2022-10-03T02:38:41.781Z,2.90
2022-10-03T02:41:15.321Z,3.30
2022-10-03T02:43:58.207Z,3.43
2022-10-03T02:46:44.509Z,3.67
2022-10-03T02:49:31.336Z,3.23
2022-10-03T02:52:18.894Z,2.93
2022-10-03T02:55:08.067Z,3.43
2022-10-03T02:57:54.202Z,3.00
2022-10-03T03:00:23.488Z,3.80
2022-10-03T03:03:09.186Z,3.03
2022-10-03T03:05:56.156Z,3.50
2022-10-03T03:08:47.714Z,3.00
2022-10-03T03:11:29.798Z,3.23
2022-10-03T03:14:19.206Z,3.37
2022-10-03T03:16:53.054Z,4.93
2022-10-03T03:19:51.578Z,3.30
2022-10-03T03:22:34.977Z,2.67
2022-10-03T03:25:16.203Z,2.70
2022-10-03T03:27:49.221Z,3.10
2022-10-03T03:30:18.534Z,3.00
2022-10-03T03:32:52.505Z,3.07
2022-10-03T03:35:24.811Z,2.73
2022-10-03T03:37:58.897Z,3.30
2022-10-03T03:40:34.872Z,3.10
2022-10-03T03:43:16.640Z,3.50
2022-10-03T03:45:50.763Z,2.70
2022-10-03T03:48:38.372Z,3.27
2022-10-03T03:51:13.037Z,3.20
2022-10-03T03:53:53.423Z,3.80
2022-10-03T03:56:39.375Z,3.13
2022-10-03T03:59:16.438Z,3.83
2022-10-03T04:01:54.426Z,3.10
2022-10-03T04:04:29.259Z,3.10
2022-10-03T04:06:59.768Z,3.13
2022-10-03T04:09:42.154Z,3.40
2022-10-03T04:12:15.597Z,2.90
2022-10-03T04:14:58.742Z,3.33
2022-10-03T04:17:54.011Z,3.20
2022-10-03T04:20:30.491Z,2.90
2022-10-03T04:23:12.881Z,3.40
2022-10-03T04:25:56.142Z,3.13
2022-10-03T04:28:43.076Z,2.60
2022-10-03T04:31:17.228Z,2.90
2022-10-03T04:33:53.834Z,3.30
2022-10-03T04:36:35.115Z,2.90
2022-10-03T04:39:07.843Z,3.10
2022-10-03T04:41:43.312Z,3.43
2022-10-03T04:44:17.478Z,3.10
2022-10-03T04:46:50.145Z,2.97
2022-10-03T04:49:22.617Z,2.77
2022-10-03T04:51:55.768Z,3.13
2022-10-03T04:54:27.985Z,2.90
2022-10-03T04:57:01.461Z,3.10
2022-10-03T04:59:48.923Z,2.83
2022-10-03T05:02:27.192Z,3.00
2022-10-03T05:05:14.189Z,3.00
2022-10-03T05:07:47.166Z,3.10
2022-10-03T05:10:28.810Z,3.07
2022-10-03T05:13:02.296Z,2.83
2022-10-03T05:15:32.938Z,2.90
2022-10-03T05:18:04.649Z,2.90
2022-10-03T05:20:39.928Z,3.13
2022-10-03T05:23:14.632Z,3.40
2022-10-03T05:25:48.741Z,3.37
2022-10-03T05:28:22.283Z,3.77
2022-10-03T05:30:53.554Z,2.93
2022-10-03T05:33:26.644Z,3.23
2022-10-03T05:36:06.165Z,2.90
2022-10-03T05:38:49.430Z,2.80
2022-10-03T05:41:26.128Z,3.13
2022-10-03T05:44:00.516Z,2.73
2022-10-03T05:46:37.391Z,3.40
2022-10-03T05:49:17.138Z,3.27
2022-10-03T05:52:04.014Z,3.40
2022-10-03T05:54:47.668Z,3.23
2022-10-03T05:57:33.775Z,3.60
2022-10-03T06:00:07.835Z,2.70
2022-10-03T06:02:43.738Z,3.43
2022-10-03T06:05:25.549Z,3.23
2022-10-03T06:08:07.633Z,3.13
2022-10-03T06:10:44.161Z,3.43
2022-10-03T06:13:15.045Z,3.27
2022-10-03T06:15:54.289Z,3.43
2022-10-03T06:18:34.885Z,3.20
2022-10-03T06:21:19.188Z,3.30
2022-10-03T06:24:06.366Z,3.13
2022-10-03T06:26:49.670Z,3.70
2022-10-03T06:29:41.965Z,3.63
2022-10-03T06:32:38.336Z,3.40
2022-10-03T06:35:39.814Z,3.37
2022-10-03T06:38:17.790Z,3.33
2022-10-03T06:41:03.793Z,3.30
2022-10-03T06:43:46.911Z,3.93
2022-10-03T06:46:24.867Z,3.60
2022-10-03T06:49:06.245Z,3.63
2022-10-03T06:51:58.671Z,3.20
2022-10-03T06:54:47.053Z,3.17
2022-10-03T06:57:21.615Z,3.40
2022-10-03T06:59:56.998Z,3.67
2022-10-03T07:02:43.245Z,3.67
2022-10-03T07:05:26.543Z,3.70
2022-10-03T07:08:25.551Z,3.30
2022-10-03T07:11:05.691Z,3.27
2022-10-03T07:13:47.804Z,3.27
2022-10-03T07:16:28.334Z,3.53
2022-10-03T07:19:12.770Z,3.00
2022-10-03T07:21:48.924Z,3.17
2022-10-03T07:24:29.762Z,3.20
2022-10-03T07:27:07.073Z,3.10
2022-10-03T07:29:42.807Z,3.20
2022-10-03T07:32:26.165Z,2.90
2022-10-03T07:35:21.954Z,3.33
2022-10-03T07:38:40.030Z,3.27
2022-10-03T07:41:21.360Z,3.13
2022-10-03T07:44:04.129Z,3.40
2022-10-03T07:46:53.162Z,3.03
2022-10-03T07:49:36.594Z,3.40
2022-10-03T07:52:20.248Z,2.90
2022-10-03T07:55:09.779Z,2.90
2022-10-03T07:57:50.789Z,3.13
2022-10-03T08:00:24.738Z,3.37
2022-10-03T08:03:10.842Z,2.83
2022-10-03T08:05:47.364Z,3.10
2022-10-03T08:08:33.571Z,3.23
2022-10-03T08:11:23.011Z,3.17
2022-10-03T08:14:00.869Z,3.20
2022-10-03T08:16:43.567Z,3.23
2022-10-03T08:19:16.811Z,3.00
2022-10-03T08:21:58.534Z,2.80
2022-10-03T08:24:37.988Z,3.30
2022-10-03T08:27:21.233Z,3.37
2022-10-03T08:30:04.970Z,3.00
2022-10-03T08:32:48.815Z,3.20
2022-10-03T08:35:26.404Z,3.40
2022-10-03T08:38:28.990Z,3.50
2022-10-03T08:41:17.697Z,2.72
2022-10-03T08:44:03.851Z,2.85
2022-10-03T08:46:47.275Z,2.95
2022-10-03T08:49:27.242Z,3.40
2022-10-03T08:52:05.335Z,3.22
2022-10-03T08:54:46.398Z,2.70
2022-10-03T08:57:18.991Z,3.03
2022-10-03T09:00:11.836Z,3.00
2022-10-03T09:03:20.128Z,3.15
2022-10-03T09:05:53.200Z,3.47
2022-10-03T09:08:40.161Z,2.95
2022-10-03T09:11:24.408Z,2.80
2022-10-03T09:14:11.055Z,3.20
2022-10-03T09:16:49.394Z,2.90
2022-10-03T09:19:30.547Z,3.55
2022-10-03T09:22:12.059Z,2.70
2022-10-03T09:25:02.036Z,3.13
2022-10-03T09:27:43.320Z,2.78
2022-10-03T09:30:35.670Z,2.95
2022-10-03T09:33:31.820Z,2.97
2022-10-03T09:36:10.341Z,2.75
2022-10-03T09:39:08.674Z,3.40
2022-10-03T09:42:08.153Z,2.83
2022-10-03T09:44:48.707Z,3.17
2022-10-03T09:47:32.981Z,3.22
2022-10-03T09:50:19.535Z,2.80
2022-10-03T09:52:56.822Z,2.75
2022-10-03T09:55:36.706Z,2.85
2022-10-03T09:58:22.078Z,2.58
2022-10-03T10:01:14.165Z,2.85
2022-10-03T10:04:06.291Z,2.45
2022-10-03T10:06:48.619Z,2.17
2022-10-03T10:09:28.230Z,2.70
2022-10-03T10:12:26.935Z,2.50
2022-10-03T10:15:13.761Z,2.67
2022-10-03T10:18:00.894Z,2.85
2022-10-03T10:21:00.726Z,2.28
2022-10-03T10:23:34.790Z,1.88
2022-10-03T10:26:18.328Z,2.08
2022-10-03T10:29:09.029Z,2.47
2022-10-03T10:31:55.387Z,2.50
2022-10-03T10:34:52.850Z,2.88
2022-10-03T10:37:45.441Z,2.30
2022-10-03T10:40:33.010Z,2.35
2022-10-03T10:43:16.269Z,2.55
2022-10-03T10:46:06.837Z,2.42
2022-10-03T10:49:03.711Z,2.10
2022-10-03T10:51:47.336Z,2.20
2022-10-03T10:54:37.623Z,2.42
2022-10-03T10:57:18.243Z,1.90
2022-10-03T11:00:09.268Z,2.13
2022-10-03T11:02:53.284Z,2.10
2022-10-03T11:05:48.791Z,1.67
2022-10-03T11:08:34.830Z,2.08
2022-10-03T11:11:14.556Z,1.70
2022-10-03T11:14:00.856Z,2.13
2022-10-03T11:16:47.042Z,2.50
2022-10-03T11:19:28.225Z,2.20
2022-10-03T11:22:16.072Z,1.80
2022-10-03T11:25:02.050Z,1.95
2022-10-03T11:27:54.319Z,1.95
2022-10-03T11:30:25.942Z,2.25
2022-10-03T11:33:21.712Z,2.03
2022-10-03T11:36:09.502Z,2.20
2022-10-03T11:38:43.203Z,1.75
2022-10-03T11:41:18.179Z,2.58
2022-10-03T11:44:07.286Z,1.77
2022-10-03T11:46:46.077Z,1.95
2022-10-03T11:49:22.494Z,2.20
2022-10-03T11:51:57.008Z,1.55
2022-10-03T11:54:32.439Z,2.10
2022-10-03T11:57:02.823Z,1.50
2022-10-03T11:59:55.504Z,2.10
2022-10-03T12:02:42.815Z,1.90
2022-10-03T12:05:16.611Z,1.40
2022-10-03T12:08:05.281Z,1.95
2022-10-03T12:10:48.672Z,1.98
2022-10-03T12:13:18.685Z,1.63
2022-10-03T12:15:48.946Z,1.70
2022-10-03T12:18:20.420Z,1.88
2022-10-03T12:21:00.408Z,1.60
2022-10-03T12:23:37.865Z,1.77
2022-10-03T12:26:10.986Z,1.90
2022-10-03T12:28:41.174Z,2.20
2022-10-03T12:31:19.106Z,1.90
2022-10-03T12:33:51.557Z,1.42
2022-10-03T12:36:21.432Z,1.45
2022-10-03T12:38:58.321Z,1.80
2022-10-03T12:41:38.196Z,1.95
2022-10-03T12:44:15.172Z,1.83
2022-10-03T12:46:47.608Z,1.58
2022-10-03T12:49:18.784Z,2.10
2022-10-03T12:51:53.074Z,1.58
2022-10-03T12:54:29.490Z,1.40
2022-10-03T12:57:07.436Z,1.70
2022-10-03T12:59:40.894Z,1.75
2022-10-03T13:02:35.625Z,1.52
2022-10-03T13:05:19.416Z,1.90
2022-10-03T13:07:53.361Z,1.70
2022-10-03T13:10:26.288Z,1.10
2022-10-03T13:13:02.619Z,1.60
2022-10-03T13:15:40.577Z,1.45
2022-10-03T13:18:14.912Z,1.55
2022-10-03T13:20:45.668Z,4.25
2022-10-03T13:23:21.218Z,1.88
2022-10-03T13:25:56.767Z,2.10
2022-10-03T13:28:32.086Z,2.20
2022-10-03T13:31:04.062Z,2.10
2022-10-03T13:33:34.007Z,2.10
2022-10-03T13:36:03.980Z,1.85
2022-10-03T13:38:46.192Z,1.67
2022-10-03T13:41:20.032Z,1.40
2022-10-03T13:43:52.255Z,2.20
2022-10-03T13:46:23.511Z,1.55
2022-10-03T13:49:02.216Z,2.00
2022-10-03T13:51:36.170Z,1.85
2022-10-03T13:54:07.593Z,1.40
2022-10-03T13:56:47.391Z,1.55
2022-10-03T13:59:34.021Z,1.83
2022-10-03T14:02:08.931Z,1.80
2022-10-03T14:04:46.868Z,1.45
2022-10-03T14:07:19.791Z,1.73
2022-10-03T14:10:00.802Z,1.58
2022-10-03T14:12:54.252Z,2.00
2022-10-03T14:15:28.949Z,1.48
2022-10-03T14:18:03.258Z,1.52
2022-10-03T14:20:35.923Z,1.85
2022-10-03T14:23:16.058Z,1.63
2022-10-03T14:25:47.226Z,1.98
2022-10-03T14:28:18.911Z,8.18
2022-10-03T14:31:05.429Z,1.70
2022-10-03T14:33:38.876Z,1.60
2022-10-03T14:36:13.785Z,1.80
2022-10-03T14:39:02.150Z,1.90
2022-10-03T14:41:39.100Z,1.70
2022-10-03T14:44:13.186Z,2.38
2022-10-03T14:46:44.270Z,2.05
2022-10-03T14:49:47.125Z,1.85
2022-10-03T14:52:10.730Z,2.03
2022-10-03T14:54:42.308Z,1.60
2022-10-03T14:57:23.331Z,2.35
2022-10-03T14:59:54.322Z,1.40
2022-10-03T15:02:28.600Z,1.85
2022-10-03T15:05:02.696Z,1.63
2022-10-03T15:07:36.474Z,1.52
2022-10-03T15:10:07.931Z,1.60
2022-10-03T15:12:38.537Z,1.65
2022-10-03T15:15:09.215Z,1.48
2022-10-03T15:17:40.406Z,1.70
2022-10-03T15:20:13.905Z,1.70
2022-10-03T15:22:43.441Z,1.92
2022-10-03T15:25:15.094Z,2.40
2022-10-03T15:27:45.691Z,2.20
2022-10-03T15:30:21.909Z,1.98
2022-10-03T15:32:53.439Z,1.67
2022-10-03T15:35:26.663Z,1.67
2022-10-03T15:37:57.632Z,1.40
2022-10-03T15:40:33.668Z,1.60
2022-10-03T15:43:10.085Z,1.60
2022-10-03T15:45:39.455Z,1.42
2022-10-03T15:48:12.074Z,1.70
2022-10-03T15:50:43.695Z,1.63
2022-10-03T15:53:35.639Z,2.10
2022-10-03T15:56:11.267Z,2.00
2022-10-03T15:58:40.952Z,1.70
2022-10-03T16:01:11.415Z,1.88
2022-10-03T16:03:44.545Z,1.73
2022-10-03T16:06:15.484Z,2.00
2022-10-03T16:08:54.862Z,1.90
2022-10-03T16:11:24.229Z,1.92
2022-10-03T16:13:59.613Z,1.77
2022-10-03T16:16:33.201Z,1.90
2022-10-03T16:19:08.805Z,2.60
2022-10-03T16:21:49.663Z,2.08
2022-10-03T16:24:20.273Z,3.20
2022-10-03T16:26:52.024Z,2.50
2022-10-03T16:29:23.055Z,2.10
2022-10-03T16:31:57.162Z,2.40
2022-10-03T16:34:26.724Z,2.30
2022-10-03T16:36:58.278Z,2.85
2022-10-03T16:39:27.509Z,3.05
2022-10-03T16:41:56.697Z,3.97
2022-10-03T16:44:26.828Z,4.60
2022-10-03T16:46:56.391Z,5.07
2022-10-03T16:49:52.694Z,5.90
2022-10-03T16:52:24.843Z,7.50
2022-10-03T16:54:59.464Z,7.38
2022-10-03T16:57:31.762Z,6.97
2022-10-03T17:00:04.586Z,6.72
2022-10-03T17:02:33.132Z,6.13
2022-10-03T17:05:05.104Z,5.30
2022-10-03T17:07:39.106Z,4.72
2022-10-03T17:10:19.416Z,4.40
2022-10-03T17:12:48.168Z,3.85
2022-10-03T17:15:21.303Z,5.80
2022-10-03T17:17:55.238Z,3.28
2022-10-03T17:20:29.697Z,2.90
2022-10-03T17:23:01.079Z,5.18
2022-10-03T17:25:36.041Z,3.72
2022-10-03T17:28:06.421Z,4.18
2022-10-03T17:30:36.983Z,5.40
2022-10-03T17:33:09.194Z,5.32
2022-10-03T17:35:43.449Z,4.03
2022-10-03T17:41:19.755Z,3.88
2022-10-03T17:43:52.181Z,4.22
2022-10-03T17:46:24.605Z,3.73
2022-10-03T17:48:57.002Z,3.88
2022-10-03T17:51:31.517Z,4.18
2022-10-03T17:54:02.127Z,4.27
2022-10-03T17:56:32.918Z,5.20
2022-10-03T17:59:04.050Z,3.60
2022-10-03T18:01:36.044Z,3.90
2022-10-03T18:04:05.574Z,4.10
2022-10-03T18:06:44.842Z,4.10
2022-10-03T18:09:24.027Z,4.43
2022-10-03T18:11:52.956Z,4.37
2022-10-03T18:14:29.853Z,4.57
2022-10-03T18:17:04.895Z,4.80
2022-10-03T18:19:40.251Z,4.87
2022-10-03T18:22:14.009Z,4.50
2022-10-03T18:24:48.970Z,5.53
2022-10-03T18:27:32.116Z,4.27
2022-10-03T18:30:04.947Z,5.00
2022-10-03T18:32:34.556Z,4.80
2022-10-03T18:35:06.614Z,4.43
2022-10-03T18:38:05.160Z,4.03
2022-10-03T18:40:36.275Z,3.67
2022-10-03T18:43:06.355Z,4.03
2022-10-03T18:45:38.095Z,5.10
2022-10-03T18:48:09.473Z,7.90
2022-10-03T18:50:45.434Z,6.03
2022-10-03T18:53:18.229Z,4.93
2022-10-03T18:55:48.986Z,4.40
2022-10-03T18:58:19.714Z,13.60
2022-10-03T19:00:52.229Z,5.93
2022-10-03T19:03:21.588Z,5.50
2022-10-03T19:05:53.051Z,5.23
2022-10-03T19:08:22.918Z,5.80
2022-10-03T19:10:54.887Z,4.17
2022-10-03T19:13:28.891Z,4.13
2022-10-03T19:16:06.539Z,4.23
2022-10-03T19:18:42.185Z,8.30
2022-10-03T19:21:18.382Z,8.97
2022-10-03T19:23:48.388Z,5.20
2022-10-03T19:26:23.352Z,6.07
2022-10-03T19:28:53.079Z,5.63
2022-10-03T19:31:23.463Z,5.00
2022-10-03T19:33:53.167Z,5.07
2022-10-03T19:36:23.858Z,5.00
2022-10-03T19:38:54.685Z,4.60
2022-10-03T19:41:28.556Z,5.33
2022-10-03T19:43:57.104Z,4.80
2022-10-03T19:46:44.937Z,4.30
2022-10-03T19:49:23.771Z,4.10
2022-10-03T19:51:52.682Z,4.37
2022-10-03T19:54:38.835Z,6.90
2022-10-03T19:57:08.809Z,7.20
2022-10-03T19:59:45.758Z,8.23
2022-10-03T20:02:14.339Z,7.60
2022-10-03T20:04:42.899Z,6.93
2022-10-03T20:07:14.208Z,6.67
2022-10-03T20:09:44.928Z,6.97
2022-10-03T20:12:16.157Z,5.57
2022-10-03T20:14:44.726Z,5.60
2022-10-03T20:17:16.253Z,5.00
2022-10-03T20:19:54.626Z,4.13
2022-10-03T20:22:23.960Z,6.57
2022-10-03T20:24:53.047Z,3.97
2022-10-03T20:27:29.402Z,3.60
2022-10-03T20:30:03.332Z,3.50
2022-10-03T20:32:45.654Z,3.10
2022-10-03T20:35:15.264Z,3.77
2022-10-03T20:37:47.787Z,3.23
2022-10-03T20:40:28.116Z,4.77
2022-10-03T20:43:02.159Z,4.47
2022-10-03T20:45:31.843Z,3.50
2022-10-03T20:48:03.220Z,3.60
2022-10-03T20:50:33.351Z,3.77
2022-10-03T20:53:03.326Z,3.53
2022-10-03T20:55:33.900Z,3.37
2022-10-03T20:58:08.034Z,3.23
2022-10-03T21:00:42.230Z,3.00
2022-10-03T21:03:15.551Z,3.40
2022-10-03T21:05:48.195Z,3.97
2022-10-03T21:08:20.379Z,3.57
2022-10-03T21:10:51.324Z,3.57
2022-10-03T21:13:22.937Z,3.70
2022-10-03T21:15:53.517Z,3.00
2022-10-03T21:18:23.517Z,3.17
2022-10-03T21:20:58.693Z,2.90
2022-10-03T21:23:27.917Z,3.10
2022-10-03T21:25:58.731Z,2.73
2022-10-03T21:28:29.121Z,2.93
2022-10-03T21:31:11.638Z,3.20
2022-10-03T21:33:40.690Z,2.90
2022-10-03T21:36:13.917Z,3.17
2022-10-03T21:38:45.012Z,3.07
2022-10-03T21:41:20.645Z,3.57
2022-10-03T21:43:53.381Z,4.40
2022-10-03T21:46:24.918Z,4.00
2022-10-03T21:49:03.745Z,4.03
2022-10-03T21:51:35.458Z,4.10
2022-10-03T21:54:16.396Z,3.33
2022-10-03T21:56:58.704Z,3.93
2022-10-03T21:59:36.668Z,3.07
2022-10-03T22:02:09.023Z,2.87
2022-10-03T22:04:40.963Z,3.57
2022-10-03T22:07:12.438Z,2.80
2022-10-03T22:09:45.723Z,3.47
2022-10-03T22:12:14.341Z,2.80
2022-10-03T22:14:46.820Z,3.13
2022-10-03T22:17:18.322Z,3.50
2022-10-03T22:19:48.902Z,2.93
2022-10-03T22:22:22.083Z,3.60
2022-10-03T22:25:08.295Z,2.93
2022-10-03T22:27:39.205Z,3.03
2022-10-03T22:30:10.538Z,2.90
2022-10-03T22:32:41.503Z,3.43
2022-10-03T22:35:17.281Z,3.20
2022-10-03T22:37:45.783Z,3.20
2022-10-03T22:40:14.687Z,3.20
2022-10-03T22:42:45.614Z,3.60
2022-10-03T22:45:17.091Z,3.10
2022-10-03T22:47:47.485Z,3.53
2022-10-03T22:50:17.561Z,3.27
2022-10-03T22:52:48.623Z,3.13
2022-10-03T22:55:18.228Z,3.20
2022-10-03T22:57:47.450Z,3.10
2022-10-03T23:00:18.548Z,3.00
2022-10-03T23:02:49.881Z,3.43
2022-10-03T23:05:23.403Z,2.87
2022-10-03T23:07:57.072Z,3.10
2022-10-03T23:10:33.733Z,2.80
2022-10-03T23:13:04.344Z,3.17
2022-10-03T23:15:36.256Z,3.53
2022-10-03T23:18:15.552Z,3.30
2022-10-03T23:20:52.004Z,3.50
2022-10-03T23:23:23.874Z,3.03
2022-10-03T23:25:59.598Z,3.43
2022-10-03T23:28:32.293Z,3.70
2022-10-03T23:31:02.160Z,5.07
2022-10-03T23:33:53.031Z,3.70
2022-10-03T23:36:24.384Z,2.70
2022-10-03T23:38:54.549Z,2.70
2022-10-03T23:41:31.078Z,2.90
2022-10-03T23:44:00.345Z,3.40
2022-10-03T23:46:31.821Z,3.40
2022-10-03T23:49:01.260Z,3.63
2022-10-03T23:51:30.987Z,3.20
2022-10-03T23:54:03.938Z,3.30
2022-10-03T23:56:34.985Z,3.30
2022-10-03T23:59:17.810Z,2.93
